Time;durP1;ratioP1;P1;durP2;ratioP2;P2;SDS_P1;SDS_P2;PMS_P1;PMS_P2;Temp;Humidity;BMP_temperature;BMP_pressure;BME280_temperature;BME280_humidity;BME280_pressure;Samples;Min_cycle;Max_cycle;Signal;HPM_P1;HPM_P2
2022/08/03 04:01:07;;;;;;;7.60;7.20;;;19.40;99.90;;;;;;5596007;23;20598;-68
2022/08/03 04:03:35;;;;;;;7.77;7.27;;;19.40;99.90;;;;;;4931370;29;20499;-68
2022/08/03 04:11:43;;;;;;;8.90;8.40;;;19.40;99.90;;;;;;4912593;29;20477;-69
2022/08/03 04:14:12;;;;;;;7.87;7.47;;;19.40;99.90;;;;;;4911318;29;20475;-69
2022/08/03 04:16:44;;;;;;;9.70;8.70;;;19.40;99.90;;;;;;4915490;29;20465;-68
2022/08/03 04:19:17;;;;;;;7.50;7.10;;;19.40;99.90;;;;;;4913582;29;20533;-68
2022/08/03 04:21:57;;;;;;;7.87;7.33;;;19.40;99.90;;;;;;4915112;29;20507;-68
2022/08/03 04:24:25;;;;;;;8.47;7.97;;;19.50;99.90;;;;;;4914619;29;20987;-68
2022/08/03 04:26:53;;;;;;;8.20;7.83;;;19.50;99.90;;;;;;4915432;29;20676;-68
2022/08/03 04:29:22;;;;;;;7.93;7.53;;;19.50;99.90;;;;;;4916891;29;20473;-68
2022/08/03 04:31:52;;;;;;;7.70;7.40;;;19.60;99.90;;;;;;4912692;29;20490;-68
2022/08/03 04:34:19;;;;;;;8.90;8.30;;;19.50;99.90;;;;;;4916135;29;20520;-68
2022/08/03 04:36:51;;;;;;;7.63;7.27;;;19.60;99.90;;;;;;4916119;29;20577;-68
2022/08/03 04:39:24;;;;;;;8.03;7.57;;;19.70;99.90;;;;;;4913668;29;20481;-68
2022/08/03 04:41:54;;;;;;;7.30;6.80;;;20.00;99.90;;;;;;4915612;29;20526;-68
2022/08/03 04:44:23;;;;;;;7.57;7.20;;;20.50;99.90;;;;;;4915294;29;20528;-69
2022/08/03 04:46:52;;;;;;;6.23;6.03;;;21.20;99.90;;;;;;4913227;29;20469;-69
2022/08/03 04:49:21;;;;;;;7.83;6.40;;;22.00;99.90;;;;;;4914549;29;20469;-69
2022/08/03 04:51:48;;;;;;;6.27;6.07;;;22.50;99.90;;;;;;4914567;29;20545;-69
2022/08/03 04:54:16;;;;;;;6.10;5.80;;;22.70;99.90;;;;;;4914289;29;21039;-69
2022/08/03 04:56:43;;;;;;;6.13;5.90;;;22.60;99.90;;;;;;4910500;29;20529;-69
2022/08/03 04:59:11;;;;;;;5.83;5.60;;;22.40;99.90;;;;;;4905790;29;20478;-69
2022/08/03 05:01:39;;;;;;;7.40;7.03;;;22.20;99.90;;;;;;4913179;29;20561;-68
2022/08/03 05:04:07;;;;;;;7.90;7.40;;;22.00;99.90;;;;;;4910758;29;20902;-69
2022/08/03 05:06:34;;;;;;;7.30;6.90;;;21.90;99.90;;;;;;4909029;29;20549;-68
2022/08/03 05:09:00;;;;;;;6.13;5.93;;;21.90;99.90;;;;;;4912720;29;20488;-69
2022/08/03 05:11:27;;;;;;;7.17;6.57;;;22.00;99.90;;;;;;4911091;29;20560;-68
2022/08/03 05:13:55;;;;;;;6.30;6.10;;;22.50;99.90;;;;;;4913622;29;20580;-69
2022/08/03 05:16:21;;;;;;;6.40;6.20;;;22.90;99.90;;;;;;4913019;29;20485;-69
2022/08/03 05:18:48;;;;;;;6.37;6.00;;;23.30;99.90;;;;;;4908377;29;20475;-69
2022/08/03 05:21:16;;;;;;;6.70;6.50;;;23.30;99.90;;;;;;4913706;29;20486;-69
2022/08/03 05:23:43;;;;;;;6.50;6.27;;;23.10;99.90;;;;;;4913038;29;20529;-69
2022/08/03 05:26:11;;;;;;;5.80;5.60;;;22.80;99.90;;;;;;4913965;29;21132;-69
2022/08/03 05:28:38;;;;;;;6.37;6.17;;;22.50;99.90;;;;;;4905306;29;20556;-69
2022/08/03 05:31:05;;;;;;;7.13;6.73;;;22.40;99.90;;;;;;4910698;29;20525;-69
2022/08/03 05:33:31;;;;;;;7.10;6.70;;;22.30;99.90;;;;;;4912300;29;20472;-69
2022/08/03 05:35:59;;;;;;;7.10;6.80;;;22.20;99.90;;;;;;4912871;29;20969;-69
2022/08/03 05:38:27;;;;;;;7.20;6.80;;;22.10;99.90;;;;;;4910065;29;20475;-69
2022/08/03 05:40:54;;;;;;;7.27;6.90;;;22.00;99.90;;;;;;4912775;29;20488;-69
2022/08/03 05:43:21;;;;;;;7.67;7.37;;;21.90;99.90;;;;;;4913914;29;20917;-69
2022/08/03 05:45:48;;;;;;;7.47;7.07;;;21.80;99.90;;;;;;4914491;29;20893;-69
2022/08/03 05:48:15;;;;;;;7.30;7.00;;;21.80;99.90;;;;;;4911080;29;20475;-69
2022/08/03 05:50:41;;;;;;;7.70;7.40;;;21.80;99.90;;;;;;4914333;29;20555;-69
2022/08/03 05:53:08;;;;;;;7.23;6.90;;;21.80;99.90;;;;;;4910618;29;20495;-69
2022/08/03 05:55:36;;;;;;;7.47;7.07;;;21.80;99.90;;;;;;4913294;29;20804;-69
2022/08/03 05:58:03;;;;;;;6.70;6.40;;;21.80;99.90;;;;;;4913117;29;20476;-69
2022/08/03 06:00:30;;;;;;;7.80;7.30;;;21.90;99.90;;;;;;4912312;29;20879;-69
2022/08/03 06:02:57;;;;;;;7.30;7.00;;;21.90;99.90;;;;;;4913417;29;20867;-69
2022/08/03 06:05:25;;;;;;;7.30;7.00;;;22.00;99.90;;;;;;4914471;29;20570;-69
2022/08/03 06:07:53;;;;;;;6.30;5.93;;;22.10;99.90;;;;;;4913153;29;20997;-69
2022/08/03 06:10:20;;;;;;;5.90;5.70;;;22.20;99.90;;;;;;4911311;29;20504;-69
2022/08/03 06:12:49;;;;;;;6.83;6.57;;;22.30;99.90;;;;;;4913822;29;20467;-69
2022/08/03 06:15:17;;;;;;;6.30;6.00;;;22.70;99.90;;;;;;4910274;29;20529;-68
2022/08/03 06:17:48;;;;;;;5.30;5.20;;;23.40;99.90;;;;;;4911456;29;20567;-69
2022/08/03 06:20:17;;;;;;;5.60;5.40;;;24.20;99.90;;;;;;4911374;29;20478;-69
2022/08/03 06:22:43;;;;;;;5.27;5.17;;;25.00;99.90;;;;;;4913252;29;20494;-69
2022/08/03 06:25:10;;;;;;;5.27;5.10;;;25.80;99.90;;;;;;4912844;29;20474;-69
2022/08/03 06:27:38;;;;;;;5.10;4.80;;;26.30;99.90;;;;;;4915654;29;20979;-69
2022/08/03 06:30:09;;;;;;;5.50;5.30;;;26.50;99.90;;;;;;4916327;29;20471;-69
2022/08/03 06:32:36;;;;;;;5.17;5.07;;;26.70;99.90;;;;;;4916481;29;20515;-69
2022/08/03 06:35:03;;;;;;;5.30;5.10;;;27.20;99.90;;;;;;4910957;29;20474;-69
2022/08/03 06:37:30;;;;;;;5.10;4.90;;;27.60;99.90;;;;;;4912211;29;21037;-69
2022/08/03 06:39:56;;;;;;;5.33;5.00;;;28.10;99.90;;;;;;4911123;29;20474;-69
2022/08/03 06:42:23;;;;;;;4.97;4.77;;;28.60;99.90;;;;;;4913324;29;20863;-69
2022/08/03 06:44:50;;;;;;;5.07;4.77;;;29.40;99.90;;;;;;4909939;29;20548;-69
2022/08/03 06:47:18;;;;;;;4.30;4.00;;;29.90;99.90;;;;;;4911527;29;21002;-67
2022/08/03 06:49:45;;;;;;;3.53;3.53;;;30.40;99.90;;;;;;4915202;29;20488;-67
2022/08/03 06:52:11;;;;;;;3.60;3.60;;;30.40;99.90;;;;;;4916083;29;20986;-67
2022/08/03 06:54:38;;;;;;;4.17;4.07;;;30.60;99.90;;;;;;4915869;29;20520;-68
2022/08/03 06:57:06;;;;;;;4.43;4.37;;;30.70;99.90;;;;;;4915363;29;20482;-68
2022/08/03 06:59:33;;;;;;;3.83;3.73;;;30.80;99.90;;;;;;4916762;29;20995;-68
2022/08/03 07:02:00;;;;;;;4.13;3.87;;;30.80;99.90;;;;;;4916180;29;20498;-68
2022/08/03 07:04:28;;;;;;;3.50;3.50;;;30.90;99.90;;;;;;4915968;29;20824;-68
2022/08/03 07:06:55;;;;;;;3.63;3.53;;;31.10;99.90;;;;;;4914504;29;20481;-68
2022/08/03 07:09:21;;;;;;;3.37;3.37;;;31.60;99.50;;;;;;4915912;29;20476;-68
2022/08/03 07:11:48;;;;;;;3.67;3.57;;;32.10;99.10;;;;;;4916450;29;20493;-67
2022/08/03 07:14:15;;;;;;;3.67;3.67;;;32.10;97.30;;;;;;4916418;29;20466;-68
2022/08/03 07:16:41;;;;;;;3.17;3.07;;;31.90;97.20;;;;;;4914316;29;21023;-68
2022/08/03 07:19:08;;;;;;;3.53;3.53;;;31.80;96.50;;;;;;4915884;29;20859;-68
2022/08/03 07:21:36;;;;;;;3.27;3.07;;;31.80;96.60;;;;;;4908440;29;20572;-68
2022/08/03 07:24:03;;;;;;;3.20;3.03;;;32.20;96.30;;;;;;4915477;29;20670;-68
2022/08/03 07:26:30;;;;;;;3.47;3.37;;;32.50;95.30;;;;;;4914497;29;21075;-68
2022/08/03 07:28:57;;;;;;;3.43;3.23;;;32.50;95.40;;;;;;4916162;29;20466;-69
2022/08/03 07:31:23;;;;;;;3.30;3.30;;;32.60;94.50;;;;;;4912956;29;20850;-69
2022/08/03 07:33:50;;;;;;;2.90;2.80;;;32.40;94.10;;;;;;4915875;29;20470;-68
2022/08/03 07:36:17;;;;;;;2.97;2.93;;;32.00;94.80;;;;;;4913901;29;20474;-68
2022/08/03 07:38:45;;;;;;;2.80;2.80;;;32.10;95.70;;;;;;4908694;29;20478;-68
2022/08/03 07:41:12;;;;;;;2.70;2.60;;;32.70;94.60;;;;;;4915175;29;20501;-68
2022/08/03 07:43:38;;;;;;;2.50;2.50;;;32.80;94.00;;;;;;4916518;29;20565;-69
2022/08/03 07:46:05;;;;;;;2.40;2.40;;;33.10;92.10;;;;;;4914918;29;20485;-71
2022/08/03 07:48:32;;;;;;;3.13;2.93;;;33.10;92.40;;;;;;4917131;29;20541;-68
2022/08/03 07:50:59;;;;;;;2.20;2.20;;;32.80;92.00;;;;;;4916210;29;20568;-68
2022/08/03 07:53:25;;;;;;;2.70;2.60;;;32.40;91.80;;;;;;4914771;29;20478;-69
2022/08/03 07:55:53;;;;;;;2.50;2.40;;;32.20;92.50;;;;;;4914715;29;20481;-68
2022/08/03 07:58:21;;;;;;;2.77;2.77;;;32.10;92.10;;;;;;4914599;29;20470;-69
2022/08/03 08:00:49;;;;;;;2.80;2.60;;;32.10;92.50;;;;;;4915458;29;20573;-68
2022/08/03 08:03:16;;;;;;;3.27;3.17;;;31.40;92.30;;;;;;4914286;29;20664;-68
2022/08/03 08:05:43;;;;;;;2.77;2.77;;;30.80;93.20;;;;;;4914555;29;20473;-67
2022/08/03 08:08:10;;;;;;;3.17;3.07;;;30.40;94.00;;;;;;4913962;29;20473;-68
2022/08/03 08:10:37;;;;;;;2.90;2.90;;;30.30;94.50;;;;;;4915316;29;20563;-68
2022/08/03 08:13:05;;;;;;;3.93;3.73;;;30.10;94.80;;;;;;4915781;29;20479;-67
2022/08/03 08:15:32;;;;;;;3.10;3.00;;;29.90;94.70;;;;;;4914248;29;20467;-70
2022/08/03 08:18:01;;;;;;;2.93;2.83;;;29.70;95.00;;;;;;4913637;29;20467;-68
2022/08/03 08:20:29;;;;;;;3.43;3.27;;;29.60;95.60;;;;;;4915026;29;21012;-68
2022/08/03 08:22:57;;;;;;;2.93;2.73;;;29.60;95.80;;;;;;4913843;29;20487;-68
2022/08/03 08:25:24;;;;;;;2.77;2.67;;;29.60;95.90;;;;;;4909800;29;20521;-70
2022/08/03 08:27:51;;;;;;;2.70;2.60;;;29.60;96.00;;;;;;4914601;29;20499;-68
2022/08/03 08:30:22;;;;;;;2.73;2.63;;;29.60;95.80;;;;;;4914215;29;20531;-68
2022/08/03 08:32:49;;;;;;;2.47;2.40;;;29.50;96.40;;;;;;4914877;29;20510;-68
2022/08/03 08:35:17;;;;;;;2.40;2.30;;;29.50;96.80;;;;;;4913673;29;21033;-68
2022/08/03 08:37:44;;;;;;;2.27;2.27;;;29.50;96.30;;;;;;4912315;29;20503;-68
2022/08/03 08:40:12;;;;;;;2.37;2.37;;;29.30;96.90;;;;;;4912369;29;20515;-68
2022/08/03 08:42:40;;;;;;;2.33;2.13;;;29.30;97.00;;;;;;4913059;29;20506;-68
2022/08/03 08:45:08;;;;;;;2.20;2.20;;;29.20;96.90;;;;;;4912941;29;20478;-68
2022/08/03 08:47:40;;;;;;;2.47;2.37;;;29.20;97.60;;;;;;4912998;29;20470;-68
2022/08/03 08:50:09;;;;;;;3.73;2.13;;;29.30;97.40;;;;;;4912690;29;20530;-68
2022/08/03 08:52:36;;;;;;;2.57;2.47;;;29.30;97.20;;;;;;4912815;29;21082;-68
2022/08/03 08:55:06;;;;;;;5.20;2.60;;;29.20;97.30;;;;;;4913885;29;21063;-68
2022/08/03 08:57:37;;;;;;;1.97;1.87;;;29.10;97.30;;;;;;4913098;29;20518;-69
2022/08/03 09:00:06;;;;;;;3.90;2.50;;;29.10;97.80;;;;;;4913872;29;20474;-68
2022/08/03 09:02:33;;;;;;;2.53;2.43;;;29.00;98.10;;;;;;4913787;29;20586;-68
2022/08/03 09:05:02;;;;;;;3.57;2.33;;;29.00;98.10;;;;;;4927842;28;20523;-68
2022/08/03 09:07:29;;;;;;;2.70;2.50;;;29.10;98.90;;;;;;4926958;29;20462;-68
2022/08/03 09:09:56;;;;;;;2.80;2.60;;;29.10;98.30;;;;;;4914317;29;20463;-69
2022/08/03 09:12:23;;;;;;;2.43;2.30;;;29.00;98.70;;;;;;4913501;29;20494;-69
2022/08/03 09:14:51;;;;;;;2.37;2.27;;;28.90;98.80;;;;;;4914872;29;20463;-68
2022/08/03 09:17:17;;;;;;;3.43;2.50;;;28.80;99.40;;;;;;4912402;29;20478;-68
2022/08/03 09:20:06;;;;;;;2.20;2.20;;;28.80;99.40;;;;;;4911586;29;20552;-69
2022/08/03 09:22:33;;;;;;;2.60;2.60;;;28.80;99.30;;;;;;4912544;29;20555;-70
2022/08/03 09:25:02;;;;;;;5.20;2.30;;;28.80;99.30;;;;;;4915567;29;20484;-69
2022/08/03 09:27:29;;;;;;;2.00;1.67;;;28.80;99.70;;;;;;4914775;29;20479;-69
2022/08/03 09:29:55;;;;;;;2.33;2.20;;;29.00;99.80;;;;;;4914278;29;20478;-69
2022/08/03 09:32:24;;;;;;;2.40;2.23;;;28.90;99.90;;;;;;4912242;29;21063;-69
2022/08/03 09:34:52;;;;;;;2.03;1.93;;;28.90;99.70;;;;;;4912377;29;20486;-69
2022/08/03 09:37:24;;;;;;;4.30;1.90;;;28.80;99.80;;;;;;4912810;29;20578;-69
2022/08/03 09:39:51;;;;;;;1.80;1.70;;;28.80;99.90;;;;;;4910993;29;20478;-70
2022/08/03 09:42:21;;;;;;;3.63;2.33;;;28.80;99.90;;;;;;4911503;29;20513;-69
2022/08/03 09:44:49;;;;;;;2.77;2.50;;;28.90;99.90;;;;;;4906617;29;20465;-69
2022/08/03 09:47:26;;;;;;;2.77;2.57;;;28.90;99.70;;;;;;4909576;29;20468;-69
2022/08/03 09:49:57;;;;;;;2.17;2.07;;;28.80;99.50;;;;;;4912923;29;20466;-69
2022/08/03 09:52:32;;;;;;;3.00;2.80;;;28.80;99.70;;;;;;4909024;29;20495;-69
2022/08/03 09:55:00;;;;;;;2.07;2.00;;;28.80;99.90;;;;;;4910210;29;20470;-69
2022/08/03 09:57:29;;;;;;;2.10;2.10;;;28.90;99.90;;;;;;4908294;29;20567;-69
2022/08/03 10:00:09;;;;;;;2.23;2.10;;;29.00;99.40;;;;;;4911688;29;20510;-69
2022/08/03 10:02:36;;;;;;;9.73;2.10;;;29.10;99.60;;;;;;4917093;29;20498;-69
2022/08/03 10:05:04;;;;;;;2.00;2.00;;;29.10;99.90;;;;;;4917183;29;20501;-69
2022/08/03 10:07:43;;;;;;;2.50;2.30;;;29.20;99.70;;;;;;4914700;29;20471;-69
2022/08/03 10:10:09;;;;;;;2.10;2.00;;;29.20;99.80;;;;;;4917064;29;20573;-69
2022/08/03 10:12:37;;;;;;;2.07;2.00;;;29.20;99.60;;;;;;4917434;29;20582;-69
2022/08/03 10:15:04;;;;;;;2.63;2.50;;;29.20;99.10;;;;;;4916175;29;20893;-70
2022/08/03 10:17:31;;;;;;;2.53;2.33;;;29.20;98.90;;;;;;4917628;29;20466;-69
2022/08/03 10:19:58;;;;;;;2.63;2.43;;;29.30;99.20;;;;;;4916223;29;20544;-69
2022/08/03 10:22:28;;;;;;;2.20;2.20;;;29.40;99.10;;;;;;4915686;29;20495;-70
2022/08/03 10:25:00;;;;;;;2.47;2.27;;;29.50;99.30;;;;;;4915390;29;20542;-69
2022/08/03 10:27:31;;;;;;;3.73;2.23;;;29.50;98.90;;;;;;4916777;29;20475;-69
2022/08/03 10:30:02;;;;;;;2.00;1.90;;;29.50;98.70;;;;;;4910885;29;20475;-69
2022/08/03 10:32:30;;;;;;;2.10;2.10;;;29.50;98.90;;;;;;4913224;29;20586;-69
2022/08/03 10:35:04;;;;;;;2.53;2.33;;;29.60;98.80;;;;;;4914464;29;20466;-69
2022/08/03 10:37:40;;;;;;;2.57;2.37;;;29.60;98.60;;;;;;4914501;29;20492;-69
2022/08/03 10:40:12;;;;;;;2.23;1.97;;;29.60;98.60;;;;;;4912966;29;20545;-69
2022/08/03 10:42:42;;;;;;;2.27;2.17;;;29.60;98.80;;;;;;4911148;29;20475;-69
2022/08/03 10:45:14;;;;;;;1.93;1.83;;;29.50;98.70;;;;;;4913928;29;20542;-69
2022/08/03 10:47:42;;;;;;;4.03;2.40;;;29.50;98.70;;;;;;4915266;29;20479;-69
2022/08/03 10:50:11;;;;;;;2.20;2.10;;;29.50;98.60;;;;;;4915167;29;20459;-69
2022/08/03 10:52:54;;;;;;;1.90;1.90;;;29.50;98.20;;;;;;4911241;29;20613;-69
2022/08/03 10:58:53;;;;;;;2.00;2.00;;;29.70;97.90;;;;;;4914281;29;20498;-69
2022/08/03 11:01:57;;;;;;;2.97;2.77;;;29.80;97.90;;;;;;4912155;29;20573;-69
2022/08/03 11:04:25;;;;;;;4.63;2.23;;;29.80;97.40;;;;;;4911219;29;20490;-69
2022/08/03 11:07:20;;;;;;;3.83;2.40;;;29.80;97.60;;;;;;4913102;29;20860;-69
2022/08/03 11:09:48;;;;;;;2.40;2.20;;;29.90;97.70;;;;;;4908167;29;20582;-69
2022/08/03 11:12:24;;;;;;;2.20;2.20;;;29.80;97.50;;;;;;4912783;29;20498;-69
2022/08/03 11:14:51;;;;;;;3.37;2.10;;;29.80;97.80;;;;;;4910899;29;20530;-69
2022/08/03 11:17:19;;;;;;;2.00;1.90;;;29.90;97.90;;;;;;4910074;29;20504;-69
2022/08/03 11:19:48;;;;;;;2.63;2.50;;;29.90;97.40;;;;;;4912083;29;20475;-69
2022/08/03 11:22:15;;;;;;;2.20;2.10;;;30.00;97.60;;;;;;4913340;29;20491;-69
2022/08/03 11:25:01;;;;;;;2.73;2.13;;;30.00;97.20;;;;;;4915086;29;20923;-69
2022/08/03 11:27:31;;;;;;;2.20;2.00;;;30.00;97.40;;;;;;4914983;29;20475;-69
2022/08/03 11:30:00;;;;;;;2.20;2.10;;;30.00;96.70;;;;;;4915034;29;20467;-69
2022/08/03 11:32:58;;;;;;;2.13;2.03;;;30.00;96.90;;;;;;4913951;29;21006;-69
2022/08/03 11:35:27;;;;;;;2.27;2.07;;;30.10;97.20;;;;;;4910412;29;20809;-69
2022/08/03 11:38:23;;;;;;;2.50;2.10;;;30.10;97.50;;;;;;4911113;29;20908;-69
2022/08/03 11:40:51;;;;;;;2.40;2.30;;;30.20;97.00;;;;;;4898757;29;20522;-69
2022/08/03 11:43:46;;;;;;;3.57;2.00;;;30.20;97.10;;;;;;4914439;29;20863;-69
2022/08/03 11:46:17;;;;;;;2.50;2.40;;;30.30;96.90;;;;;;4902925;29;20473;-70
2022/08/03 11:48:45;;;;;;;2.13;2.03;;;30.20;96.80;;;;;;4915553;29;20471;-69
2022/08/03 11:51:23;;;;;;;2.30;2.20;;;30.30;96.90;;;;;;4913225;29;20491;-70
2022/08/03 11:53:59;;;;;;;4.50;1.97;;;30.40;97.00;;;;;;4909385;29;20467;-70
2022/08/03 11:56:27;;;;;;;3.77;2.10;;;30.40;96.00;;;;;;4914647;29;20471;-69
2022/08/03 11:58:57;;;;;;;2.43;2.30;;;30.50;96.10;;;;;;4914988;29;20467;-69
2022/08/03 12:01:25;;;;;;;4.00;1.80;;;30.60;95.70;;;;;;4912353;29;20501;-69
2022/08/03 12:03:52;;;;;;;2.10;2.00;;;30.60;95.60;;;;;;4913342;29;20486;-69
2022/08/03 12:06:19;;;;;;;2.13;2.00;;;30.60;95.90;;;;;;4912041;29;20471;-69
2022/08/03 12:08:46;;;;;;;2.70;2.07;;;30.60;96.20;;;;;;4914337;29;20526;-69
2022/08/03 12:11:15;;;;;;;2.00;1.90;;;30.60;96.00;;;;;;4911060;29;20495;-69
2022/08/03 12:13:43;;;;;;;2.60;1.80;;;30.60;96.30;;;;;;4911554;29;20466;-70
2022/08/03 12:16:18;;;;;;;7.00;2.10;;;30.70;96.00;;;;;;4913592;29;20578;-69
2022/08/03 12:18:45;;;;;;;1.70;1.60;;;30.70;95.70;;;;;;4914141;29;20558;-69
2022/08/03 12:21:12;;;;;;;2.43;2.30;;;30.70;95.10;;;;;;4912736;29;20562;-69
2022/08/03 12:23:39;;;;;;;1.67;1.57;;;30.70;95.40;;;;;;4913126;29;20483;-69
2022/08/03 12:26:08;;;;;;;2.73;1.50;;;30.70;94.90;;;;;;4915004;29;20960;-69
2022/08/03 12:28:35;;;;;;;1.70;1.60;;;30.70;94.90;;;;;;4915469;29;20464;-69
2022/08/03 12:31:06;;;;;;;2.07;1.97;;;30.80;94.50;;;;;;4913645;29;20491;-69
2022/08/03 12:33:55;;;;;;;1.50;1.50;;;30.80;94.40;;;;;;4913887;29;20467;-69
2022/08/03 12:36:21;;;;;;;2.93;1.73;;;30.90;94.90;;;;;;4914505;29;20467;-69
2022/08/03 12:38:56;;;;;;;1.77;1.63;;;31.00;95.10;;;;;;4914711;29;20468;-69
2022/08/03 12:41:29;;;;;;;1.67;1.57;;;31.00;94.60;;;;;;4906866;29;20932;-70
2022/08/03 12:43:57;;;;;;;1.47;1.47;;;31.10;94.40;;;;;;4913970;29;21019;-69
2022/08/03 12:46:30;;;;;;;1.40;1.40;;;31.10;94.10;;;;;;4913724;29;20507;-69
2022/08/03 12:49:06;;;;;;;1.53;1.50;;;31.20;93.90;;;;;;4913645;29;20530;-69
2022/08/03 12:51:35;;;;;;;2.07;2.07;;;31.20;93.80;;;;;;4912462;29;20494;-69
2022/08/03 12:54:03;;;;;;;3.67;2.20;;;31.30;93.90;;;;;;4912993;29;20471;-69
2022/08/03 12:56:30;;;;;;;2.10;1.97;;;31.30;94.10;;;;;;4913704;29;20483;-69
2022/08/03 12:58:56;;;;;;;2.13;2.00;;;31.30;94.60;;;;;;4913767;29;20552;-69
2022/08/03 13:01:26;;;;;;;2.23;2.10;;;31.40;94.00;;;;;;4911672;29;20585;-68
2022/08/03 13:03:53;;;;;;;3.23;2.40;;;31.40;93.70;;;;;;4912723;29;20504;-68
2022/08/03 13:06:23;;;;;;;1.67;1.60;;;31.30;93.50;;;;;;4913278;29;20475;-68
2022/08/03 13:08:51;;;;;;;3.47;1.60;;;31.30;93.60;;;;;;4913015;29;20575;-67
2022/08/03 13:11:19;;;;;;;4.37;1.70;;;31.30;93.30;;;;;;4912481;29;20966;-67
2022/08/03 13:13:46;;;;;;;1.53;1.50;;;31.40;92.90;;;;;;4913199;29;20551;-67
2022/08/03 13:16:13;;;;;;;1.53;1.53;;;31.50;92.90;;;;;;4911594;29;20813;-67
2022/08/03 13:18:40;;;;;;;4.07;3.27;;;31.60;93.30;;;;;;4913248;29;20479;-67
2022/08/03 13:21:06;;;;;;;3.50;1.97;;;31.60;93.10;;;;;;4912418;29;20520;-67
2022/08/03 13:23:34;;;;;;;3.53;2.10;;;31.60;93.40;;;;;;4909528;29;20479;-68
2022/08/03 13:26:01;;;;;;;1.93;1.80;;;31.60;92.70;;;;;;4909964;29;20538;-67
2022/08/03 13:28:28;;;;;;;2.07;1.90;;;31.60;93.40;;;;;;4912119;29;20534;-69
2022/08/03 13:30:55;;;;;;;2.30;1.93;;;31.60;93.00;;;;;;4912048;29;20897;-69
2022/08/03 13:33:21;;;;;;;3.73;2.40;;;31.60;93.00;;;;;;4912529;29;20523;-69
2022/08/03 13:35:48;;;;;;;1.53;1.50;;;31.60;93.10;;;;;;4913537;29;20555;-67
2022/08/03 13:38:15;;;;;;;2.47;1.40;;;31.70;91.80;;;;;;4912230;29;20482;-70
2022/08/03 13:40:43;;;;;;;2.80;1.50;;;31.50;91.80;;;;;;4913453;29;20868;-68
2022/08/03 13:43:10;;;;;;;4.10;1.90;;;31.40;92.30;;;;;;4912555;29;20901;-68
2022/08/03 13:45:39;;;;;;;3.00;1.40;;;31.40;92.40;;;;;;4913903;29;20490;-68
2022/08/03 13:48:06;;;;;;;1.77;1.60;;;31.50;92.60;;;;;;4913155;29;20494;-69
2022/08/03 13:50:33;;;;;;;2.60;1.70;;;31.60;92.50;;;;;;4912741;29;20586;-69
2022/08/03 13:53:00;;;;;;;1.40;1.30;;;31.80;92.00;;;;;;4912671;29;20475;-68
2022/08/03 13:55:27;;;;;;;2.30;1.37;;;31.90;91.60;;;;;;4913734;29;20959;-69
2022/08/03 13:57:55;;;;;;;3.37;1.63;;;31.90;91.30;;;;;;4912783;29;20479;-69
2022/08/03 14:00:24;;;;;;;1.70;1.60;;;31.80;91.40;;;;;;4912040;29;20489;-69
2022/08/03 14:02:51;;;;;;;1.60;1.60;;;31.80;91.40;;;;;;4913628;29;20493;-69
2022/08/03 14:05:18;;;;;;;2.63;1.90;;;31.80;91.50;;;;;;4912651;29;21004;-69
2022/08/03 14:07:45;;;;;;;2.00;2.00;;;31.70;91.70;;;;;;4913614;29;20474;-69
2022/08/03 14:10:12;;;;;;;2.17;2.07;;;31.70;92.10;;;;;;4907886;29;20565;-68
2022/08/03 14:12:39;;;;;;;2.83;1.87;;;31.60;92.10;;;;;;4913713;29;20825;-69
2022/08/03 14:15:08;;;;;;;1.63;1.53;;;31.60;92.00;;;;;;4912078;29;20501;-69
2022/08/03 14:17:35;;;;;;;1.80;1.60;;;31.60;91.70;;;;;;4912510;29;20921;-69
2022/08/03 14:20:03;;;;;;;2.00;1.80;;;31.80;92.10;;;;;;4911535;29;20473;-69
2022/08/03 14:22:30;;;;;;;5.13;2.20;;;31.80;91.70;;;;;;4913422;29;20568;-69
2022/08/03 14:24:57;;;;;;;1.80;1.70;;;32.00;91.30;;;;;;4914783;29;20504;-69
2022/08/03 14:27:24;;;;;;;1.80;1.70;;;32.00;91.60;;;;;;4913537;29;20550;-69
2022/08/03 14:29:50;;;;;;;1.57;1.53;;;32.00;91.30;;;;;;4912383;29;20467;-69
2022/08/03 14:32:18;;;;;;;1.80;1.70;;;32.00;91.20;;;;;;4913041;29;20482;-69
2022/08/03 14:34:45;;;;;;;1.70;1.60;;;31.80;90.20;;;;;;4912401;29;20463;-69
2022/08/03 14:37:12;;;;;;;1.80;1.80;;;31.70;90.70;;;;;;4913528;29;20529;-69
2022/08/03 14:39:38;;;;;;;3.70;2.10;;;31.70;90.70;;;;;;4912048;29;20542;-69
2022/08/03 14:42:05;;;;;;;2.00;1.90;;;31.80;91.10;;;;;;4911108;29;20495;-68
2022/08/03 14:44:32;;;;;;;2.23;1.90;;;31.90;91.30;;;;;;4913328;29;20542;-68
2022/08/03 14:46:59;;;;;;;5.13;1.97;;;32.00;91.30;;;;;;4913582;29;20467;-68
2022/08/03 14:49:27;;;;;;;2.23;1.70;;;32.10;91.50;;;;;;4916053;29;20479;-68
2022/08/03 14:51:54;;;;;;;2.73;1.50;;;32.10;91.30;;;;;;4915614;29;20498;-68
2022/08/03 14:54:21;;;;;;;2.07;1.93;;;32.10;90.90;;;;;;4915613;29;20510;-68
2022/08/03 14:56:48;;;;;;;1.67;1.67;;;32.20;90.50;;;;;;4915944;29;20495;-68
2022/08/03 14:59:14;;;;;;;3.30;1.70;;;32.20;90.60;;;;;;4916720;29;20491;-68
2022/08/03 15:01:41;;;;;;;1.90;1.80;;;32.30;89.50;;;;;;4914580;29;20521;-68
2022/08/03 15:04:08;;;;;;;1.60;1.50;;;32.20;89.00;;;;;;4915613;29;20834;-68
2022/08/03 15:06:36;;;;;;;1.83;1.80;;;32.30;90.00;;;;;;4914929;29;20489;-68
2022/08/03 15:09:03;;;;;;;2.20;2.10;;;32.40;90.00;;;;;;4915136;29;20555;-68
2022/08/03 15:11:30;;;;;;;1.70;1.60;;;32.50;89.70;;;;;;4916496;29;20493;-68
2022/08/03 15:13:57;;;;;;;6.23;2.30;;;32.50;89.00;;;;;;4915879;29;20956;-69
2022/08/03 15:16:23;;;;;;;2.10;2.00;;;32.60;89.60;;;;;;4914884;29;20470;-69
2022/08/03 15:18:50;;;;;;;2.03;1.80;;;32.70;89.80;;;;;;4915468;29;20546;-68
2022/08/03 15:21:17;;;;;;;2.07;1.90;;;32.70;88.30;;;;;;4916266;29;20490;-68
2022/08/03 15:23:45;;;;;;;2.13;1.70;;;32.60;86.40;;;;;;4914948;29;20955;-68
2022/08/03 15:26:12;;;;;;;2.30;2.20;;;32.60;86.50;;;;;;4914804;29;20495;-68
2022/08/03 15:28:39;;;;;;;1.77;1.30;;;32.50;87.20;;;;;;4913125;29;20502;-68
2022/08/03 15:31:06;;;;;;;2.73;1.80;;;32.60;86.80;;;;;;4915263;29;20493;-68
2022/08/03 15:33:32;;;;;;;2.27;2.17;;;32.60;88.20;;;;;;4915156;29;20471;-68
2022/08/03 15:35:59;;;;;;;3.00;1.97;;;32.70;89.00;;;;;;4914336;29;20521;-68
2022/08/03 15:38:26;;;;;;;3.70;2.27;;;32.80;89.40;;;;;;4914678;29;20529;-68
2022/08/03 15:40:54;;;;;;;1.83;1.83;;;32.90;89.80;;;;;;4915254;29;20555;-68
2022/08/03 15:43:21;;;;;;;2.10;2.10;;;33.00;89.20;;;;;;4914432;29;20792;-68
2022/08/03 15:45:48;;;;;;;1.57;1.47;;;33.10;88.30;;;;;;4906969;29;20853;-68
2022/08/03 15:48:15;;;;;;;2.33;1.80;;;33.10;86.00;;;;;;4911271;29;21025;-68
2022/08/03 15:50:42;;;;;;;1.90;1.80;;;33.10;85.30;;;;;;4915005;29;20497;-69
2022/08/03 15:53:09;;;;;;;2.00;2.00;;;33.20;86.00;;;;;;4911500;29;20586;-69
2022/08/03 15:55:35;;;;;;;1.67;1.57;;;33.30;86.70;;;;;;4913791;29;20469;-68
2022/08/03 15:58:03;;;;;;;2.33;2.33;;;33.30;87.40;;;;;;4913937;29;20465;-68
2022/08/03 16:00:30;;;;;;;2.20;2.10;;;33.20;87.50;;;;;;4913824;29;20543;-69
2022/08/03 16:02:58;;;;;;;4.20;2.60;;;33.30;87.90;;;;;;4914396;29;20486;-69
2022/08/03 16:05:24;;;;;;;2.37;2.17;;;33.30;88.10;;;;;;4913131;29;20556;-69
2022/08/03 16:07:52;;;;;;;2.00;1.90;;;33.30;87.80;;;;;;4908558;29;20995;-68
2022/08/03 16:10:20;;;;;;;1.90;1.90;;;33.20;87.20;;;;;;4913806;29;20498;-68
2022/08/03 16:12:47;;;;;;;2.37;1.97;;;33.20;87.10;;;;;;4911731;29;20488;-69
2022/08/03 16:15:15;;;;;;;2.33;2.10;;;33.20;88.50;;;;;;4912264;29;20467;-69
2022/08/03 16:17:42;;;;;;;2.50;2.30;;;33.20;88.00;;;;;;4914357;29;20499;-69
2022/08/03 16:20:10;;;;;;;1.90;1.90;;;33.10;87.10;;;;;;4914573;29;20556;-68
2022/08/03 16:22:42;;;;;;;3.23;2.20;;;33.10;86.80;;;;;;4933068;23;20505;-70
2022/08/03 16:25:09;;;;;;;2.47;2.27;;;33.10;87.50;;;;;;4931848;29;20499;-69
2022/08/03 16:27:36;;;;;;;2.13;1.90;;;33.00;86.60;;;;;;4933601;29;20470;-70
2022/08/03 16:30:04;;;;;;;1.70;1.70;;;32.90;87.50;;;;;;4933211;29;20523;-71
2022/08/03 16:32:32;;;;;;;2.50;2.30;;;32.80;87.90;;;;;;4933273;29;20521;-70
2022/08/03 16:34:59;;;;;;;2.40;2.30;;;32.80;89.40;;;;;;4931854;29;21034;-70
2022/08/03 16:37:26;;;;;;;2.40;2.30;;;32.70;88.00;;;;;;4932011;29;20846;-70
2022/08/03 16:39:53;;;;;;;3.00;2.60;;;32.60;88.50;;;;;;4932274;29;20488;-71
2022/08/03 16:42:19;;;;;;;5.20;2.07;;;32.50;89.50;;;;;;4926492;29;20473;-71
2022/08/03 16:44:46;;;;;;;2.03;2.03;;;32.40;88.90;;;;;;4931535;29;20706;-71
2022/08/03 16:47:13;;;;;;;2.23;2.13;;;32.40;88.20;;;;;;4933268;29;20470;-71
2022/08/03 16:49:41;;;;;;;8.33;2.80;;;32.30;87.60;;;;;;4916908;29;20526;-71
2022/08/03 16:52:08;;;;;;;2.07;1.97;;;32.20;87.70;;;;;;4931756;29;20478;-71
2022/08/03 16:54:34;;;;;;;2.63;1.73;;;32.10;89.40;;;;;;4930378;29;20535;-71
2022/08/03 16:57:01;;;;;;;4.33;3.00;;;31.90;90.00;;;;;;4932969;29;20492;-71
2022/08/03 16:59:28;;;;;;;2.70;2.40;;;31.80;89.30;;;;;;4932290;29;20585;-71
2022/08/03 17:01:54;;;;;;;2.17;2.17;;;31.80;90.10;;;;;;4933704;29;20887;-71
2022/08/03 17:04:21;;;;;;;2.60;2.50;;;31.80;90.10;;;;;;4930494;29;20529;-71